Time;durP1;ratioP1;P1;durP2;ratioP2;P2;SDS_P1;SDS_P2;PMS_P1;PMS_P2;Temp;Humidity;BMP_temperature;BMP_pressure;BME280_temperature;BME280_humidity;BME280_pressure;Samples;Min_cycle;Max_cycle;Signal;HPM_P1;HPM_P2
2022/02/02 00:00:38;;;;;;;13.33;4.47;;;;;;;4.36;100.00;99032.81;6106136;23;20075;-86
2022/02/02 00:03:10;;;;;;;15.50;4.80;;;;;;;4.47;100.00;99043.06;6107969;23;20026;-83
2022/02/02 00:19:43;;;;;;;20.27;5.47;;;;;;;4.37;100.00;99047.63;6053444;23;19923;-86
2022/02/02 00:22:20;;;;;;;13.53;3.83;;;;;;;4.44;100.00;99054.44;6150371;23;20021;-84
2022/02/02 00:27:20;;;;;;;22.60;4.43;;;;;;;4.47;100.00;99054.38;6128357;23;20025;-85
2022/02/02 00:29:57;;;;;;;18.80;5.77;;;;;;;4.45;100.00;99061.38;6107218;23;20445;-89
2022/02/02 00:35:08;;;;;;;14.03;4.17;;;;;;;4.60;100.00;99068.03;6151869;23;20025;-85
2022/02/02 00:37:40;;;;;;;18.40;4.97;;;;;;;4.53;100.00;99064.69;6108309;23;20365;-86
2022/02/02 00:40:09;;;;;;;14.30;4.10;;;;;;;4.45;100.00;99064.00;6105407;23;20021;-87
2022/02/02 00:42:37;;;;;;;11.30;4.13;;;;;;;4.61;100.00;99068.91;6106149;23;20113;-85
2022/02/02 00:45:08;;;;;;;14.30;3.77;;;;;;;4.61;100.00;99051.44;6104344;23;20567;-88
2022/02/02 00:47:39;;;;;;;10.80;3.90;;;;;;;4.50;100.00;99064.78;6106137;23;20048;-88
2022/02/02 00:50:07;;;;;;;15.27;4.80;;;;;;;4.52;100.00;99051.66;6127833;23;20021;-86
2022/02/02 00:52:40;;;;;;;17.50;3.83;;;;;;;4.52;100.00;99060.34;6130250;23;20022;-88
2022/02/02 00:55:07;;;;;;;13.67;4.40;;;;;;;4.57;100.00;99065.50;6103428;23;20031;-86
2022/02/02 00:57:34;;;;;;;14.60;4.43;;;;;;;4.52;100.00;99062.97;6105108;23;20032;-85
2022/02/02 01:00:01;;;;;;;16.63;4.73;;;;;;;4.63;100.00;99054.06;6102797;23;20022;-88
2022/02/02 01:02:29;;;;;;;15.90;4.73;;;;;;;4.67;100.00;99061.78;6105442;23;20052;-88
2022/02/02 01:04:56;;;;;;;17.27;4.97;;;;;;;4.60;100.00;99060.19;6126555;23;20035;-87
2022/02/02 01:08:05;;;;;;;20.57;5.67;;;;;;;4.62;100.00;99065.38;6129816;23;20021;-87
2022/02/02 01:10:36;;;;;;;16.90;4.60;;;;;;;4.62;100.00;99070.63;6117584;23;20100;-85
2022/02/02 01:13:23;;;;;;;13.77;4.13;;;;;;;4.66;100.00;99073.16;6106313;23;20421;-87
2022/02/02 01:29:59;;;;;;;16.47;4.97;;;;;;;4.78;100.00;99090.31;6152156;23;20017;-84
2022/02/02 01:32:32;;;;;;;15.40;5.15;;;;;;;4.83;100.00;99083.25;6131024;23;20055;-87
2022/02/02 01:35:06;;;;;;;12.13;4.63;;;;;;;4.88;100.00;99086.63;6126926;23;20036;-85
2022/02/02 01:37:35;;;;;;;17.70;4.67;;;;;;;4.84;100.00;99092.81;6105107;23;20029;-87
2022/02/02 01:40:21;;;;;;;20.17;4.93;;;;;;;4.80;100.00;99094.63;6104602;23;20084;-87
2022/02/02 01:42:58;;;;;;;16.70;4.90;;;;;;;4.82;100.00;99099.84;6107743;23;20028;-86
2022/02/02 01:45:40;;;;;;;18.93;4.80;;;;;;;4.89;100.00;99104.03;6103984;23;20021;-89
2022/02/02 01:53:20;;;;;;;22.50;4.23;;;;;;;4.81;100.00;99116.44;6128495;23;20049;-87
2022/02/02 01:55:48;;;;;;;13.20;4.03;;;;;;;4.74;100.00;99115.69;6103944;23;20021;-87
2022/02/02 01:58:32;;;;;;;21.03;4.47;;;;;;;4.72;100.00;99116.63;6103800;23;20022;-85
2022/02/02 02:00:58;;;;;;;11.10;3.90;;;;;;;4.71;100.00;99126.25;6081098;23;20031;-84
2022/02/02 02:03:25;;;;;;;17.50;4.73;;;;;;;4.71;100.00;99114.91;6079066;23;20021;-86
2022/02/02 02:05:52;;;;;;;22.33;5.03;;;;;;;4.72;100.00;99141.03;6077529;23;20035;-86
2022/02/02 02:08:19;;;;;;;18.60;5.37;;;;;;;4.73;100.00;99124.44;6079534;23;20026;-86
2022/02/02 02:10:46;;;;;;;18.43;4.60;;;;;;;4.73;100.00;99127.06;6078334;23;20122;-85
2022/02/02 02:13:39;;;;;;;24.07;5.57;;;;;;;4.66;100.00;99120.22;6082254;23;20056;-87
2022/02/02 02:16:10;;;;;;;20.93;5.83;;;;;;;4.74;100.00;99126.16;6106075;23;20076;-86
2022/02/02 02:18:37;;;;;;;15.87;5.00;;;;;;;4.72;100.00;99124.47;6083972;23;20072;-85
2022/02/02 02:21:12;;;;;;;14.17;4.63;;;;;;;4.68;100.00;99141.13;6101856;23;20022;-87
2022/02/02 02:23:39;;;;;;;15.70;5.23;;;;;;;4.60;100.00;99127.34;6081786;23;20464;-84
2022/02/02 02:26:28;;;;;;;20.37;5.00;;;;;;;4.60;100.00;99133.44;6107037;23;20021;-84
2022/02/02 02:31:36;;;;;;;21.43;4.97;;;;;;;4.51;100.00;99144.94;6104700;23;20052;-86
2022/02/02 02:37:25;;;;;;;13.40;4.27;;;;;;;4.43;100.00;99153.84;6106323;23;20311;-85
2022/02/02 02:55:49;;;;;;;15.17;4.33;;;;;;;4.65;100.00;99164.72;6104765;23;20026;-85
2022/02/02 02:56:43;;;;;;;14.47;5.17;;;;;;;4.58;100.00;99150.91;6109593;23;20033;-87
2022/02/02 02:59:17;;;;;;;13.97;3.87;;;;;;;4.57;100.00;99161.41;6107648;23;20823;-87
2022/02/02 03:29:51;;;;;;;22.60;6.33;;;;;;;4.49;100.00;99177.25;6130446;23;20025;-85
2022/02/02 03:32:32;;;;;;;16.17;4.57;;;;;;;4.41;100.00;99185.25;6130844;23;20552;-86
2022/02/02 03:35:07;;;;;;;19.03;5.13;;;;;;;4.38;100.00;99185.31;6133050;23;20330;-86
2022/02/02 03:51:35;;;;;;;11.93;3.30;;;;;;;4.28;100.00;99190.72;6130102;23;20385;-86
2022/02/02 03:54:39;;;;;;;14.17;4.03;;;;;;;4.30;100.00;99187.22;6106949;23;20030;-87
2022/02/02 04:03:39;;;;;;;17.93;4.30;;;;;;;4.33;100.00;99187.13;6131811;23;20068;-85
2022/02/02 04:10:51;;;;;;;23.10;4.70;;;;;;;4.25;100.00;99204.72;6149412;23;20018;-87
2022/02/02 04:13:46;;;;;;;20.83;4.60;;;;;;;4.27;100.00;99210.78;6129199;23;20025;-88
2022/02/02 04:53:03;;;;;;;19.07;5.60;;;;;;;4.28;100.00;99251.72;6080576;23;20056;-87
2022/02/02 04:58:15;;;;;;;22.20;5.57;;;;;;;4.33;100.00;99249.03;6153302;23;20059;-86
2022/02/02 05:05:55;;;;;;;17.63;5.30;;;;;;;4.18;100.00;99248.41;6126676;23;20202;-87
2022/02/02 05:08:34;;;;;;;15.60;5.47;;;;;;;4.24;100.00;99255.28;6107303;23;20021;-87
2022/02/02 05:41:11;;;;;;;14.13;3.43;;;;;;;4.32;100.00;99273.44;6130715;23;20017;-86
2022/02/02 05:52:12;;;;;;;20.93;3.60;;;;;;;4.58;95.58;99313.06;6128615;23;20409;-85
2022/02/02 05:54:39;;;;;;;9.17;2.60;;;;;;;4.64;95.60;99322.56;6128937;23;20025;-88
2022/02/02 05:57:12;;;;;;;11.53;3.67;;;;;;;4.59;93.79;99314.81;6107606;23;20048;-85
2022/02/02 05:59:41;;;;;;;11.77;3.50;;;;;;;4.68;94.75;99334.69;6109011;23;20020;-86
2022/02/02 06:02:13;;;;;;;10.60;3.37;;;;;;;4.59;94.88;99340.09;6108343;23;20025;-88
2022/02/02 06:04:46;;;;;;;9.53;3.30;;;;;;;4.70;95.14;99346.84;6108771;23;20025;-87
2022/02/02 06:07:14;;;;;;;9.57;3.07;;;;;;;4.66;94.28;99337.34;6131993;23;20025;-84
2022/02/02 06:09:44;;;;;;;11.03;3.57;;;;;;;4.66;93.85;99337.34;6132700;23;20032;-85
2022/02/02 06:12:15;;;;;;;9.23;4.33;;;;;;;4.64;95.20;99343.50;6107453;23;20032;-88
2022/02/02 06:14:43;;;;;;;6.77;2.60;;;;;;;4.67;94.52;99336.44;6132693;23;20519;-85
2022/02/02 06:17:10;;;;;;;7.77;3.80;;;;;;;4.73;93.73;99352.06;6105779;23;20095;-86
2022/02/02 06:19:37;;;;;;;14.20;4.07;;;;;;;4.68;90.72;99355.63;6107932;23;20020;-89
2022/02/02 06:22:13;;;;;;;14.07;3.77;;;;;;;4.75;92.38;99357.25;6107461;23;20025;-85
2022/02/02 06:24:48;;;;;;;10.53;3.90;;;;;;;4.75;92.47;99362.47;6110087;23;20024;-87
2022/02/02 06:27:20;;;;;;;12.93;3.40;;;;;;;4.75;91.08;99365.97;6109046;23;20025;-87
2022/02/02 06:29:56;;;;;;;7.50;3.67;;;;;;;4.68;92.15;99373.94;6110166;23;20021;-86
2022/02/02 06:32:26;;;;;;;8.83;3.80;;;;;;;4.70;92.36;99370.41;6135762;23;20021;-87
2022/02/02 06:35:02;;;;;;;17.53;3.87;;;;;;;4.75;89.17;99380.78;6107871;23;20025;-87
2022/02/02 06:37:29;;;;;;;9.97;2.50;;;;;;;4.77;90.69;99377.25;6108705;23;20056;-86
2022/02/02 06:39:56;;;;;;;18.47;3.60;;;;;;;4.71;92.48;99377.38;6107439;23;20021;-84
2022/02/02 06:42:23;;;;;;;14.17;2.80;;;;;;;4.74;92.73;99382.56;6107897;23;20025;-87
2022/02/02 06:44:50;;;;;;;10.93;2.83;;;;;;;4.69;91.42;99386.13;6107545;23;20021;-85
2022/02/02 06:47:17;;;;;;;15.23;4.10;;;;;;;4.75;92.50;99392.13;6107383;23;20400;-87
2022/02/02 06:49:47;;;;;;;6.83;2.53;;;;;;;4.77;93.76;99398.19;6132542;23;20024;-85
2022/02/02 06:52:22;;;;;;;10.93;3.47;;;;;;;4.74;95.30;99405.25;6108021;23;20029;-89
2022/02/02 06:55:10;;;;;;;10.33;3.03;;;;;;;4.62;94.82;99411.50;6109296;23;20503;-86
2022/02/02 06:58:16;;;;;;;11.63;2.73;;;;;;;4.65;95.80;99397.53;6133351;23;20083;-86
2022/02/02 07:12:23;;;;;;;14.70;3.23;;;;;;;4.64;95.70;99451.63;6130464;23;20025;-85
2022/02/02 07:14:35;;;;;;;9.53;2.43;;;;;;;4.61;95.65;99453.41;6128018;23;20031;-87
2022/02/02 07:20:01;;;;;;;11.53;3.07;;;;;;;4.46;99.03;99460.63;6134567;23;20075;-84
2022/02/02 07:23:06;;;;;;;10.60;3.30;;;;;;;4.50;100.00;99491.06;6120753;23;20021;-87
2022/02/02 07:26:42;;;;;;;9.30;2.60;;;;;;;4.45;100.00;99498.09;6135306;23;20413;-88
2022/02/02 07:31:21;;;;;;;10.90;2.80;;;;;;;4.28;100.00;99496.59;6133640;23;20028;-87
2022/02/02 07:33:56;;;;;;;8.33;2.37;;;;;;;4.24;100.00;99511.47;6115098;23;20021;-87
2022/02/02 07:36:32;;;;;;;8.10;2.43;;;;;;;4.17;100.00;99508.06;6132636;23;20021;-89
2022/02/02 07:39:03;;;;;;;10.13;2.60;;;;;;;4.13;100.00;99519.47;6109758;23;20396;-87
2022/02/02 07:41:36;;;;;;;11.47;2.80;;;;;;;4.01;100.00;99514.38;6111221;23;20025;-85
2022/02/02 07:44:13;;;;;;;8.20;2.90;;;;;;;4.08;100.00;99509.94;6116181;23;20021;-86
2022/02/02 07:46:45;;;;;;;12.90;3.40;;;;;;;4.12;100.00;99522.06;6137185;23;20025;-83
2022/02/02 07:49:15;;;;;;;14.67;2.87;;;;;;;3.93;100.00;99522.31;6110265;23;20392;-87
2022/02/02 07:51:42;;;;;;;8.87;2.87;;;;;;;3.97;100.00;99522.28;6133312;23;20453;-88
2022/02/02 07:54:17;;;;;;;9.60;2.43;;;;;;;4.01;100.00;99530.06;6134343;23;20025;-87
2022/02/02 07:56:57;;;;;;;11.23;3.10;;;;;;;4.02;100.00;99539.63;6108005;23;20033;-84
2022/02/02 08:02:09;;;;;;;8.73;2.60;;;;;;;4.05;100.00;99557.03;6130254;23;20021;-87
2022/02/02 08:04:36;;;;;;;7.70;2.60;;;;;;;4.08;100.00;99562.22;6105169;23;20025;-88
2022/02/02 08:07:06;;;;;;;15.50;3.47;;;;;;;4.04;100.00;99565.75;6108035;23;20027;-85
2022/02/02 08:09:42;;;;;;;12.33;2.90;;;;;;;4.08;100.00;99565.69;6108784;23;20034;-88
2022/02/02 08:12:17;;;;;;;8.07;3.07;;;;;;;4.05;100.00;99568.34;6105223;23;20331;-86
2022/02/02 08:14:45;;;;;;;9.60;2.57;;;;;;;3.91;100.00;99578.94;6111108;23;20472;-86
2022/02/02 08:17:12;;;;;;;7.73;2.50;;;;;;;3.98;100.00;99584.13;6113782;23;20030;-84
2022/02/02 08:19:40;;;;;;;5.00;1.90;;;;;;;4.01;100.00;99587.53;6121543;23;20104;-84
2022/02/02 08:22:07;;;;;;;8.73;2.80;;;;;;;3.93;100.00;99597.22;6156856;23;20022;-84
2022/02/02 08:24:34;;;;;;;9.47;2.60;;;;;;;3.87;100.00;99599.91;6107394;23;20032;-86
2022/02/02 08:27:00;;;;;;;8.97;2.83;;;;;;;3.78;100.00;99613.03;6112004;23;20044;-84
2022/02/02 08:29:27;;;;;;;9.20;2.63;;;;;;;3.85;100.00;99612.97;6112592;23;20028;-84
2022/02/02 08:31:54;;;;;;;9.53;2.90;;;;;;;3.91;100.00;99610.31;6111635;23;20086;-87
2022/02/02 08:34:21;;;;;;;11.67;2.53;;;;;;;3.93;100.00;99623.34;6139520;23;20021;-83
2022/02/02 08:36:53;;;;;;;9.07;2.40;;;;;;;3.95;100.00;99632.91;6115639;23;20022;-86
2022/02/02 08:39:43;;;;;;;8.50;2.40;;;;;;;4.00;100.00;99637.22;6138637;23;20028;-87
2022/02/02 08:42:15;;;;;;;8.77;2.90;;;;;;;3.93;100.00;99636.41;6162151;23;20032;-86
2022/02/02 08:45:11;;;;;;;13.53;3.23;;;;;;;3.94;100.00;99636.38;6137259;23;20025;-84
2022/02/02 08:47:34;;;;;;;6.90;2.50;;;;;;;4.03;100.00;99643.25;6135704;23;20449;-86
2022/02/02 08:50:03;;;;;;;7.73;2.60;;;;;;;4.02;100.00;99649.38;6102157;23;21162;-88
2022/02/02 08:52:46;;;;;;;9.40;2.50;;;;;;;4.05;100.00;99636.31;6104504;23;20053;-86
2022/02/02 08:55:55;;;;;;;8.20;2.03;;;;;;;4.12;100.00;99642.31;6112010;23;20032;-87
2022/02/02 09:01:15;;;;;;;6.73;2.33;;;;;;;4.15;100.00;99668.44;6107889;23;20021;-86
2022/02/02 09:06:28;;;;;;;8.27;2.13;;;;;;;4.17;100.00;99667.53;6130390;23;20602;-85
2022/02/02 09:09:08;;;;;;;9.87;2.40;;;;;;;4.14;100.00;99662.34;6103470;23;20025;-84
2022/02/02 09:20:07;;;;;;;5.40;2.00;;;;;;;4.17;100.00;99687.56;6126051;23;20402;-87
2022/02/02 09:35:56;;;;;;;10.50;3.00;;;;;;;4.49;100.00;99723.84;6125655;23;20055;-86
2022/02/02 09:38:24;;;;;;;12.10;2.97;;;;;;;4.53;100.00;99729.00;6103800;23;20104;-84
2022/02/02 09:43:24;;;;;;;12.47;2.93;;;;;;;4.51;100.00;99737.78;6127578;23;20026;-87
2022/02/02 09:45:59;;;;;;;10.03;2.80;;;;;;;4.57;100.00;99747.31;6102361;23;20048;-85
2022/02/02 09:48:41;;;;;;;7.60;2.65;;;;;;;4.52;100.00;99747.34;6104570;23;20029;-86
2022/02/02 09:51:12;;;;;;;9.37;2.60;;;;;;;4.49;100.00;99750.00;6099774;23;20018;-86
2022/02/02 09:53:55;;;;;;;11.67;2.67;;;;;;;4.52;100.00;99752.56;6103396;23;20053;-87
2022/02/02 10:02:29;;;;;;;12.43;3.00;;;;;;;4.40;100.00;99766.66;6132047;23;20025;-82
2022/02/02 10:13:48;;;;;;;11.70;2.60;;;;;;;4.32;100.00;99773.72;6132641;23;20036;-82
2022/02/02 10:16:15;;;;;;;11.77;3.47;;;;;;;4.32;100.00;99781.56;6136733;23;20400;-81
2022/02/02 10:18:42;;;;;;;8.40;2.50;;;;;;;4.34;100.00;99782.41;6107710;23;20025;-82
2022/02/02 10:21:09;;;;;;;12.73;3.27;;;;;;;4.38;100.00;99783.25;6106021;23;20452;-81
2022/02/02 10:23:41;;;;;;;5.57;2.40;;;;;;;4.32;100.00;99791.16;6156494;23;20021;-81
2022/02/02 10:26:17;;;;;;;8.10;3.17;;;;;;;4.43;100.00;99813.69;6105892;23;20357;-82
2022/02/02 10:28:44;;;;;;;18.00;4.07;;;;;;;4.44;100.00;99807.56;6131901;23;20026;-81
2022/02/02 10:31:11;;;;;;;12.27;3.20;;;;;;;4.29;100.00;99825.16;6129718;23;20072;-80
2022/02/02 10:33:39;;;;;;;10.70;3.30;;;;;;;4.48;100.00;99814.53;6132751;23;20022;-82
2022/02/02 10:36:20;;;;;;;7.13;2.77;;;;;;;4.55;100.00;99824.94;6105203;23;20022;-81
2022/02/02 10:39:04;;;;;;;8.00;2.40;;;;;;;4.61;100.00;99830.09;6155932;23;20018;-82
2022/02/02 10:41:51;;;;;;;7.30;2.67;;;;;;;4.48;100.00;99827.59;6152046;23;20068;-80
2022/02/02 10:44:38;;;;;;;11.67;2.53;;;;;;;4.67;100.00;99840.50;6133572;23;20025;-81
2022/02/02 10:47:30;;;;;;;8.57;2.43;;;;;;;4.59;100.00;99832.72;6131359;23;20021;-82
2022/02/02 10:50:28;;;;;;;4.70;1.60;;;;;;;4.60;99.86;99834.47;6106238;23;20025;-82
2022/02/02 11:06:39;;;;;;;11.67;2.40;;;;;;;4.47;100.00;99882.53;6160475;23;20079;-80
2022/02/02 11:09:10;;;;;;;7.63;1.90;;;;;;;4.31;100.00;99894.88;6110817;23;20461;-81
2022/02/02 11:11:44;;;;;;;14.30;2.13;;;;;;;4.13;100.00;99905.47;6131853;23;20330;-82
2022/02/02 11:14:17;;;;;;;;;;;;;;;4.26;100.00;99901.88;6110684;23;20025;-83
2022/02/02 11:16:49;;;;;;;5.47;2.10;;;;;;;4.21;100.00;99941.13;6132104;23;19916;-82
2022/02/02 11:19:16;;;;;;;6.63;2.20;;;;;;;4.19;100.00;99929.78;6159756;23;20191;-82
2022/02/02 11:21:43;;;;;;;5.23;2.20;;;;;;;4.17;100.00;99928.94;6133007;23;20507;-82
2022/02/02 11:24:36;;;;;;;8.30;1.90;;;;;;;4.23;100.00;99934.16;6119659;23;20025;-82
2022/02/02 11:27:03;;;;;;;4.80;1.60;;;;;;;4.27;100.00;99934.13;6131631;23;20025;-81
2022/02/02 11:29:36;;;;;;;5.40;2.10;;;;;;;4.27;100.00;99948.06;6110438;23;20036;-80
2022/02/02 11:32:08;;;;;;;7.65;1.85;;;;;;;4.33;100.00;99949.75;6132248;23;20021;-81
2022/02/02 11:34:35;;;;;;;7.37;2.23;;;;;;;4.38;100.00;99958.47;6135018;23;20070;-80
2022/02/02 11:37:04;;;;;;;3.07;1.60;;;;;;;4.27;100.00;99957.66;6133447;23;20025;-81
2022/02/02 11:39:37;;;;;;;4.37;2.07;;;;;;;4.19;100.00;99976.00;6132838;23;20025;-81
2022/02/02 11:42:18;;;;;;;7.83;2.50;;;;;;;4.15;100.00;99969.06;6128977;23;20091;-81
2022/02/02 11:45:03;;;;;;;6.87;2.13;;;;;;;4.15;100.00;99979.50;6111099;23;20102;-80
2022/02/02 11:47:44;;;;;;;6.03;1.93;;;;;;;4.24;100.00;99984.69;6118656;23;20091;-80
2022/02/02 11:50:10;;;;;;;7.87;2.93;;;;;;;4.25;100.00;99983.81;6131512;23;20029;-83
2022/02/02 11:52:51;;;;;;;3.73;1.53;;;;;;;4.32;100.00;100006.44;6132989;23;20443;-81
2022/02/02 11:55:20;;;;;;;4.70;2.10;;;;;;;4.30;100.00;100017.78;6132149;23;20392;-82
2022/02/02 11:58:12;;;;;;;4.13;1.70;;;;;;;4.35;100.00;100018.59;6132466;23;20047;-80
2022/02/02 12:00:55;;;;;;;5.50;2.23;;;;;;;4.23;100.00;100023.03;6153524;23;20032;-82
2022/02/02 12:04:17;;;;;;;5.33;2.80;;;;;;;4.20;100.00;100046.59;6109784;23;20032;-84
2022/02/02 12:06:58;;;;;;;14.53;5.47;;;;;;;4.23;100.00;100050.94;6155593;23;20080;-85
2022/02/02 12:09:46;;;;;;;3.90;2.30;;;;;;;4.23;100.00;100041.34;6136615;23;20405;-82
2022/02/02 12:48:08;;;;;;;1.40;0.80;;;;;;;3.84;100.00;100173.00;6136936;23;20466;-83
2022/02/02 12:56:32;;;;;;;3.27;1.07;;;;;;;4.11;100.00;100185.16;6134831;23;20021;-81
2022/02/02 13:02:09;;;;;;;2.03;0.70;;;;;;;4.21;99.17;100186.03;6155585;23;20021;-80
2022/02/02 13:04:36;;;;;;;1.33;0.70;;;;;;;4.36;99.39;100180.72;6108781;23;20404;-80
2022/02/02 13:07:08;;;;;;;1.20;0.70;;;;;;;4.53;96.51;100196.38;6155768;23;20040;-81
2022/02/02 13:09:36;;;;;;;1.77;0.70;;;;;;;4.54;93.56;100190.28;6133561;23;20464;-80
2022/02/02 13:12:22;;;;;;;1.07;0.80;;;;;;;4.51;94.07;100182.44;6154963;23;20448;-81
2022/02/02 13:26:36;;;;;;;0.60;0.50;;;;;;;3.89;90.44;100252.28;6159015;23;20071;-81
2022/02/02 13:29:18;;;;;;;3.10;0.80;;;;;;;3.81;89.59;100258.38;6110551;23;20048;-80
2022/02/02 13:31:58;;;;;;;0.53;0.50;;;;;;;3.86;91.27;100267.06;6154741;23;20334;-80
2022/02/02 13:48:47;;;;;;;1.83;0.73;;;;;;;3.68;83.24;100304.50;6136778;23;20083;-81
2022/02/02 14:01:43;;;;;;;2.83;0.57;;;;;;;4.03;82.21;100348.09;6154713;23;20025;-82
2022/02/02 14:31:12;;;;;;;2.20;0.80;;;;;;;3.79;72.63;100419.50;6134150;23;20032;-80
2022/02/02 14:33:53;;;;;;;2.60;0.73;;;;;;;3.80;74.47;100424.72;6113867;23;20348;-82
2022/02/02 14:36:26;;;;;;;2.53;1.27;;;;;;;3.72;75.31;100449.09;6129930;23;20025;-82
2022/02/02 14:39:13;;;;;;;2.85;0.90;;;;;;;3.60;74.63;100460.34;6158698;23;20351;-81
2022/02/02 14:41:58;;;;;;;2.70;1.07;;;;;;;3.45;74.95;100461.16;6110103;23;20021;-80
2022/02/02 14:44:27;;;;;;;;;;;;;;;3.55;74.69;100475.13;6161367;23;20031;-81
2022/02/02 14:47:19;;;;;;;1.30;0.70;;;;;;;3.66;74.44;100468.22;6161305;23;19916;-81
2022/02/02 14:50:26;;;;;;;2.13;0.80;;;;;;;3.59;74.13;100477.75;6133382;23;20365;-80
2022/02/02 15:09:17;;;;;;;2.53;1.23;;;;;;;3.70;78.74;100509.19;6136023;23;20029;-81
2022/02/02 15:27:57;;;;;;;0.80;0.70;;;;;;;3.67;80.17;100559.66;6162443;23;20025;-81
2022/02/02 15:32:59;;;;;;;2.20;0.73;;;;;;;3.64;77.58;100566.63;6134045;23;20017;-79
2022/02/02 15:35:29;;;;;;;33.93;16.97;;;;;;;3.66;78.42;100573.59;6131053;23;20100;-79
2022/02/02 15:37:59;;;;;;;1.53;0.93;;;;;;;3.67;76.09;100582.28;6132828;23;20419;-79
2022/02/02 15:40:38;;;;;;;3.90;0.90;;;;;;;3.46;75.03;100576.94;6153908;23;20021;-79
2022/02/02 15:43:14;;;;;;;1.47;0.80;;;;;;;3.52;75.75;100595.25;6134211;23;20104;-80
2022/02/02 16:04:54;;;;;;;2.50;0.80;;;;;;;3.48;75.72;100612.66;6159113;23;20025;-79
2022/02/02 16:07:27;;;;;;;2.50;1.90;;;;;;;3.42;75.79;100623.03;6107821;23;20033;-79
2022/02/02 16:09:59;;;;;;;2.30;0.80;;;;;;;3.18;74.18;100621.09;6132090;23;20029;-78
2022/02/02 16:12:29;;;;;;;1.60;0.70;;;;;;;3.24;76.32;100621.16;6132560;23;20017;-79
2022/02/02 16:31:27;;;;;;;1.63;0.70;;;;;;;2.80;76.35;100647.72;6134144;23;20027;-80
2022/02/02 16:36:56;;;;;;;1.00;0.80;;;;;;;2.66;81.42;100677.97;6132818;23;20187;-79
2022/02/02 16:39:20;;;;;;;3.20;2.30;;;;;;;2.65;82.41;100684.03;6134413;23;20028;-80
2022/02/02 16:44:32;;;;;;;2.17;1.40;;;;;;;2.72;81.90;100688.47;6161964;23;20337;-79
2022/02/02 16:46:59;;;;;;;1.53;0.80;;;;;;;2.61;81.33;100686.63;6179953;23;20333;-79
2022/02/02 16:49:26;;;;;;;4.17;1.00;;;;;;;2.65;82.68;100691.88;6132502;23;20092;-79
2022/02/02 16:51:52;;;;;;;2.67;0.97;;;;;;;2.50;83.16;100702.97;6129896;23;20016;-79
2022/02/02 16:54:30;;;;;;;2.93;1.70;;;;;;;2.52;83.71;100701.28;6107849;23;20056;-78
2022/02/02 16:57:09;;;;;;;2.47;1.00;;;;;;;2.65;83.41;100711.88;6158157;23;20041;-79
2022/02/02 17:25:13;;;;;;;2.63;1.00;;;;;;;2.89;85.45;100773.91;6136403;23;20028;-80
2022/02/02 17:30:08;;;;;;;4.50;1.03;;;;;;;3.01;86.41;100767.09;6156012;23;20025;-79
2022/02/02 17:32:45;;;;;;;2.23;0.90;;;;;;;2.88;87.61;100773.03;6113295;23;20021;-79
2022/02/02 17:38:08;;;;;;;5.00;1.63;;;;;;;2.67;91.40;100780.56;6133152;23;20456;-79
2022/02/02 17:40:51;;;;;;;2.60;1.20;;;;;;;2.68;93.24;100791.03;6110429;23;20047;-80
2022/02/02 17:45:56;;;;;;;3.33;1.43;;;;;;;2.42;95.44;100789.78;6128840;23;20032;-80
2022/02/02 18:03:20;;;;;;;2.20;1.00;;;;;;;2.48;100.00;100829.88;6037711;23;20023;-79
2022/02/02 18:18:58;;;;;;;3.93;1.70;;;;;;;2.37;100.00;100847.09;6131187;23;20031;-78
2022/02/02 18:21:26;;;;;;;2.97;1.60;;;;;;;2.37;100.00;100843.59;6127679;23;20376;-80
2022/02/02 18:26:32;;;;;;;3.67;1.73;;;;;;;2.46;100.00;100877.66;6129620;23;20020;-80
2022/02/02 18:29:07;;;;;;;3.07;1.73;;;;;;;2.49;100.00;100885.50;6133331;23;20040;-81
2022/02/02 18:34:40;;;;;;;4.77;1.70;;;;;;;2.31;100.00;100890.44;6134476;23;20028;-80
2022/02/02 18:41:06;;;;;;;3.83;1.90;;;;;;;2.18;100.00;100877.16;6153058;23;20143;-80
2022/02/02 19:03:51;;;;;;;8.93;4.60;;;;;;;1.95;100.00;100913.28;6130266;23;20017;-82
2022/02/02 19:06:41;;;;;;;7.43;4.33;;;;;;;1.82;100.00;100913.00;6132456;23;20025;-81
2022/02/02 19:37:41;;;;;;;7.37;1.80;;;;;;;1.73;100.00;100954.50;6157418;23;20021;-81
2022/02/02 19:40:21;;;;;;;3.53;1.77;;;;;;;1.73;100.00;100942.34;6132291;23;20059;-81
2022/02/02 19:55:14;;;;;;;4.63;1.87;;;;;;;1.55;100.00;100948.06;6133239;23;20021;-82
2022/02/02 20:05:44;;;;;;;5.27;1.70;;;;;;;1.29;100.00;100937.13;6085843;23;19921;-81
2022/02/02 20:11:08;;;;;;;4.83;1.67;;;;;;;1.36;100.00;100951.16;6131728;23;20359;-81
2022/02/02 20:13:36;;;;;;;2.93;1.23;;;;;;;1.13;100.00;100954.13;6109534;23;20028;-81
2022/02/02 20:16:03;;;;;;;2.23;1.37;;;;;;;1.14;100.00;100955.00;6129266;23;20098;-82
2022/02/02 20:18:35;;;;;;;2.43;1.40;;;;;;;1.11;100.00;100960.13;6106709;23;20528;-81
2022/02/02 20:21:06;;;;;;;3.03;1.70;;;;;;;1.10;100.00;100955.78;6104440;23;20051;-79
2022/02/02 20:23:38;;;;;;;4.60;2.80;;;;;;;1.23;100.00;100957.78;6130735;23;20032;-81
2022/02/02 20:26:07;;;;;;;6.43;4.13;;;;;;;1.15;100.00;100948.94;6130664;23;20028;-81
2022/02/02 20:28:33;;;;;;;4.73;3.60;;;;;;;1.17;100.00;100959.38;6106423;23;20025;-80
2022/02/02 20:31:00;;;;;;;7.50;3.80;;;;;;;1.10;100.00;100950.59;6104148;23;20033;-80
2022/02/02 20:33:27;;;;;;;6.37;3.77;;;;;;;1.12;100.00;100957.56;6107317;23;20408;-81
2022/02/02 20:35:55;;;;;;;5.73;3.60;;;;;;;0.98;100.00;100958.97;6129395;23;20055;-81
2022/02/02 20:38:22;;;;;;;5.27;3.63;;;;;;;0.88;100.00;100962.22;6130988;23;20029;-80
2022/02/02 20:40:49;;;;;;;5.73;3.50;;;;;;;0.81;100.00;100973.31;6128294;23;20073;-80
2022/02/02 20:43:28;;;;;;;6.23;3.57;;;;;;;0.75;100.00;100978.34;6106517;23;20025;-80
2022/02/02 21:03:35;;;;;;;3.67;1.23;;;;;;;0.52;100.00;100978.69;6159396;23;20052;-79
2022/02/02 21:05:34;;;;;;;4.87;1.50;;;;;;;0.49;100.00;100991.56;6117108;23;20024;-81
2022/02/02 21:10:31;;;;;;;7.83;2.43;;;;;;;0.45;100.00;101000.16;6128653;23;20399;-81
2022/02/02 21:15:44;;;;;;;5.57;2.97;;;;;;;0.38;100.00;101012.94;6157221;23;20036;-81
2022/02/02 21:18:20;;;;;;;6.23;2.30;;;;;;;0.32;100.00;101017.97;6130807;23;20087;-82
2022/02/02 21:20:57;;;;;;;7.43;2.40;;;;;;;0.26;100.00;101013.50;6106206;23;20487;-81
2022/02/02 21:28:24;;;;;;;7.57;2.60;;;;;;;0.17;100.00;101039.22;6156485;23;20092;-81
2022/02/02 21:30:51;;;;;;;11.80;3.63;;;;;;;0.19;100.00;101045.34;6152625;23;20020;-81
2022/02/02 21:33:18;;;;;;;10.70;3.87;;;;;;;0.17;100.00;101049.59;6106552;23;20017;-79
2022/02/02 21:35:47;;;;;;;6.77;2.27;;;;;;;0.21;100.00;101043.69;6104895;23;20025;-79
2022/02/02 21:40:52;;;;;;;7.70;3.03;;;;;;;0.19;100.00;101064.44;6127951;23;20028;-80
2022/02/02 21:43:20;;;;;;;7.80;2.97;;;;;;;0.21;100.00;101056.66;6156860;23;20072;-80
2022/02/02 21:45:52;;;;;;;17.33;5.90;;;;;;;0.30;100.00;101058.63;6131296;23;20048;-81
2022/02/02 21:48:19;;;;;;;11.60;5.10;;;;;;;0.30;100.00;101061.25;6106782;23;20029;-80
2022/02/02 21:50:56;;;;;;;13.20;5.60;;;;;;;0.29;100.00;101060.34;6127752;23;20028;-82
2022/02/02 21:53:23;;;;;;;9.50;5.13;;;;;;;0.38;100.00;101059.72;6133271;23;20021;-79
2022/02/02 21:55:50;;;;;;;7.10;3.80;;;;;;;0.34;100.00;101068.25;6128438;23;20067;-80
2022/02/02 21:58:18;;;;;;;7.03;2.60;;;;;;;0.36;100.00;101064.88;6107134;23;20025;-80
2022/02/02 22:00:45;;;;;;;8.33;2.50;;;;;;;0.38;100.00;101073.59;6102604;23;20025;-80
2022/02/02 22:03:12;;;;;;;5.63;2.60;;;;;;;0.34;100.00;101063.97;6105715;23;20718;-81
2022/02/02 22:05:40;;;;;;;5.67;2.37;;;;;;;0.33;100.00;101064.78;6104195;23;20031;-80
2022/02/02 22:08:09;;;;;;;5.77;2.33;;;;;;;0.33;100.00;101064.78;6105249;23;20052;-81
2022/02/02 22:10:37;;;;;;;8.10;3.60;;;;;;;0.34;100.00;101063.97;6106172;23;20076;-81
2022/02/02 22:13:04;;;;;;;7.70;3.67;;;;;;;0.34;100.00;101060.47;6108569;23;20400;-80
2022/02/02 22:15:41;;;;;;;10.10;2.60;;;;;;;0.39;100.00;101071.88;6154996;23;20032;-80
2022/02/02 22:18:11;;;;;;;8.10;2.60;;;;;;;0.32;100.00;101057.84;6133191;23;20496;-79
2022/02/02 22:20:37;;;;;;;7.03;2.07;;;;;;;0.36;100.00;101064.88;6129556;23;20400;-81
2022/02/02 22:23:04;;;;;;;4.83;2.20;;;;;;;0.35;100.00;101063.13;6107443;23;20368;-81
2022/02/02 22:25:33;;;;;;;7.50;2.40;;;;;;;0.34;100.00;101074.38;6129473;23;20028;-79
2022/02/02 22:28:03;;;;;;;6.60;2.70;;;;;;;0.34;100.00;101070.84;6109594;23;20103;-81